createdAt,value
2018-09-01T00:00:16.250Z,11.80
2018-09-01T00:02:45.016Z,11.80
2018-09-01T00:05:13.731Z,11.70
2018-09-01T00:07:42.547Z,11.60
2018-09-01T00:10:11.249Z,11.60
2018-09-01T00:12:39.921Z,11.60
2018-09-01T00:15:08.633Z,11.60
2018-09-01T00:17:37.307Z,11.60
2018-09-01T00:20:06.058Z,11.40
2018-09-01T00:22:34.781Z,11.40
2018-09-01T00:25:03.520Z,11.40
2018-09-01T00:27:32.270Z,11.50
2018-09-01T00:30:01.006Z,11.40
2018-09-01T00:32:29.720Z,11.30
2018-09-01T00:34:58.457Z,11.30
2018-09-01T00:37:32.431Z,11.30
2018-09-01T00:40:01.127Z,11.30
2018-09-01T00:42:29.922Z,11.20
2018-09-01T00:44:58.684Z,11.20
2018-09-01T00:47:27.313Z,11.20
2018-09-01T00:49:56.107Z,11.00
2018-09-01T00:52:24.903Z,11.00
2018-09-01T00:54:53.638Z,11.00
2018-09-01T00:57:22.293Z,10.90
2018-09-01T00:59:51.029Z,10.90
2018-09-01T01:02:19.744Z,10.90
2018-09-01T01:04:48.500Z,10.90
2018-09-01T01:07:17.054Z,10.80
2018-09-01T01:09:46.030Z,10.80
2018-09-01T01:12:14.745Z,11.00
2018-09-01T01:14:43.381Z,11.00
2018-09-01T01:17:12.056Z,11.00
2018-09-01T01:19:41.554Z,11.00
2018-09-01T01:22:10.247Z,11.00
2018-09-01T01:24:38.942Z,10.90
2018-09-01T01:27:07.676Z,10.90
2018-09-01T01:29:36.333Z,10.90
2018-09-01T01:32:04.989Z,10.90
2018-09-01T01:34:33.663Z,10.90
2018-09-01T01:37:02.369Z,10.90
2018-09-01T01:39:31.053Z,10.90
2018-09-01T01:41:59.810Z,10.90
2018-09-01T01:44:28.548Z,10.90
2018-09-01T01:46:57.341Z,11.00
2018-09-01T01:49:26.121Z,11.00
2018-09-01T01:51:54.872Z,10.90
2018-09-01T01:54:23.543Z,10.80
2018-09-01T01:56:52.341Z,10.80
2018-09-01T01:59:21.096Z,10.80
2018-09-01T02:01:49.791Z,10.70
2018-09-01T02:04:18.489Z,10.70
2018-09-01T02:06:47.204Z,10.70
2018-09-01T02:09:15.929Z,10.60
2018-09-01T02:11:44.716Z,10.70
2018-09-01T02:14:14.247Z,10.70
2018-09-01T02:16:43.063Z,10.70
2018-09-01T02:19:11.639Z,10.60
2018-09-01T02:21:40.335Z,10.60
2018-09-01T02:24:09.029Z,10.60
2018-09-01T02:26:37.804Z,10.50
2018-09-01T02:29:06.637Z,10.50
2018-09-01T02:31:35.255Z,10.50
2018-09-01T02:34:04.210Z,10.50
2018-09-01T02:36:32.905Z,10.60
2018-09-01T02:39:01.543Z,10.50
2018-09-01T02:41:30.236Z,10.50
2018-09-01T02:43:58.831Z,10.50
2018-09-01T02:46:27.446Z,10.50
2018-09-01T02:48:56.221Z,10.40
2018-09-01T02:51:24.934Z,10.40
2018-09-01T02:53:53.512Z,10.30
2018-09-01T02:56:22.193Z,10.30
2018-09-01T02:58:50.923Z,10.20
2018-09-01T03:01:24.860Z,10.30
2018-09-01T03:03:53.553Z,10.30
2018-09-01T03:06:22.288Z,10.30
2018-09-01T03:08:50.985Z,10.40
2018-09-01T03:11:19.779Z,10.30
2018-09-01T03:13:48.434Z,10.30
2018-09-01T03:16:17.300Z,10.30
2018-09-01T03:18:45.947Z,10.40
2018-09-01T03:21:21.262Z,10.40
2018-09-01T03:23:49.881Z,10.30
2018-09-01T03:26:18.631Z,10.30
2018-09-01T03:28:47.286Z,10.30
2018-09-01T03:31:15.865Z,10.30
2018-09-01T03:33:44.496Z,10.30
2018-09-01T03:36:13.252Z,10.20
2018-09-01T03:38:41.968Z,10.20
2018-09-01T03:41:10.633Z,10.10
2018-09-01T03:43:40.159Z,10.10
2018-09-01T03:46:08.832Z,10.10
2018-09-01T03:48:37.568Z,10.00
2018-09-01T03:51:06.603Z,10.00
2018-09-01T03:53:35.279Z,10.10
2018-09-01T03:56:03.935Z,10.10
2018-09-01T03:58:32.629Z,10.00
2018-09-01T04:01:01.351Z,10.00
2018-09-01T04:03:29.941Z,10.00
2018-09-01T04:05:58.795Z,10.00
2018-09-01T04:08:27.650Z,10.00
2018-09-01T04:10:56.319Z,10.10
2018-09-01T04:13:24.880Z,10.10
2018-09-01T04:15:53.596Z,10.00
2018-09-01T04:18:22.272Z,10.00
2018-09-01T04:20:51.006Z,9.90
2018-09-01T04:23:19.743Z,10.00
2018-09-01T04:25:48.453Z,10.00
2018-09-01T04:28:17.133Z,9.80
2018-09-01T04:36:56.360Z,9.80
2018-09-01T04:39:31.407Z,9.80
2018-09-01T04:50:55.166Z,9.70
2018-09-01T04:53:26.294Z,9.80
2018-09-01T04:56:00.480Z,9.70
2018-09-01T04:58:29.281Z,9.80
2018-09-01T05:00:58.068Z,9.90
2018-09-01T05:03:26.822Z,10.00
2018-09-01T05:05:55.677Z,10.10
2018-09-01T05:08:24.412Z,10.00
2018-09-01T05:10:53.288Z,9.90
2018-09-01T05:13:21.981Z,9.90
2018-09-01T05:15:50.956Z,9.90
2018-09-01T05:18:19.730Z,10.10
2018-09-01T05:20:48.666Z,10.20
2018-09-01T05:23:17.461Z,10.20
2018-09-01T05:25:46.302Z,10.50
2018-09-01T05:28:15.231Z,10.70
2018-09-01T05:30:44.125Z,10.90
2018-09-01T05:33:12.981Z,11.00
2018-09-01T05:35:41.695Z,11.20
2018-09-01T05:38:10.490Z,11.30
2018-09-01T05:40:39.325Z,11.40
2018-09-01T05:43:08.341Z,11.50
2018-09-01T05:45:37.229Z,11.50
2018-09-01T05:48:06.131Z,11.60
2018-09-01T05:50:34.889Z,11.90
2018-09-01T05:53:03.540Z,12.20
2018-09-01T05:55:32.174Z,12.50
2018-09-01T05:58:00.049Z,13.30
2018-09-01T06:00:32.953Z,14.20
2018-09-01T06:03:01.159Z,15.30
2018-09-01T06:05:29.171Z,16.50
2018-09-01T06:07:57.049Z,18.00
2018-09-01T06:10:25.023Z,19.40
2018-09-01T06:12:52.977Z,20.30
2018-09-01T06:15:21.053Z,20.30
2018-09-01T06:17:50.223Z,19.30
2018-09-01T06:20:19.026Z,18.60
2018-09-01T06:22:48.218Z,18.30
2018-09-01T06:25:16.913Z,17.70
2018-09-01T06:27:48.288Z,17.70
2018-09-01T06:30:21.663Z,17.70
2018-09-01T06:32:49.900Z,18.10
2018-09-01T06:35:18.066Z,18.70
2018-09-01T06:37:46.116Z,19.30
2018-09-01T06:40:13.903Z,20.00
2018-09-01T06:42:41.738Z,21.30
2018-09-01T06:45:09.612Z,22.40
2018-09-01T06:47:37.768Z,23.00
2018-09-01T06:50:05.824Z,24.20
2018-09-01T06:52:33.740Z,24.50
2018-09-01T06:55:01.653Z,25.20
2018-09-01T06:57:29.787Z,25.30
2018-09-01T06:59:57.662Z,24.60
2018-09-01T07:02:25.519Z,25.00
2018-09-01T07:04:53.393Z,26.10
2018-09-01T07:07:21.267Z,27.00
2018-09-01T07:09:49.162Z,28.10
2018-09-01T07:12:17.259Z,26.90
2018-09-01T07:14:45.073Z,26.90
2018-09-01T07:17:13.051Z,27.00
2018-09-01T07:19:40.963Z,26.60
2018-09-01T07:22:09.400Z,27.10
2018-09-01T07:24:38.323Z,27.70
2018-09-01T07:27:06.367Z,28.20
2018-09-01T07:29:34.899Z,29.10
2018-09-01T07:32:03.058Z,27.70
2018-09-01T07:34:30.933Z,26.90
2018-09-01T07:36:58.744Z,28.00
2018-09-01T07:39:26.883Z,28.60
2018-09-01T07:41:55.497Z,29.00
2018-09-01T07:44:24.334Z,29.10
2018-09-01T07:46:53.487Z,29.40
2018-09-01T07:49:21.729Z,28.60
2018-09-01T07:51:49.824Z,29.40
2018-09-01T07:54:18.409Z,28.30
2018-09-01T07:56:46.967Z,29.50
2018-09-01T07:59:15.328Z,29.30
2018-09-01T08:01:43.789Z,28.70
2018-09-01T08:04:12.113Z,29.00
2018-09-01T08:06:40.140Z,29.60
2018-09-01T08:09:09.863Z,29.00
2018-09-01T08:11:38.545Z,28.40
2018-09-01T08:14:14.221Z,30.80
2018-09-01T08:16:43.971Z,30.90
2018-09-01T08:19:11.903Z,30.80
2018-09-01T08:21:39.832Z,30.10
2018-09-01T08:24:08.073Z,30.70
2018-09-01T08:26:36.083Z,30.40
2018-09-01T08:29:04.067Z,30.00
2018-09-01T08:31:31.878Z,29.30
2018-09-01T08:34:00.000Z,30.20
2018-09-01T08:36:27.928Z,31.00
2018-09-01T08:38:56.066Z,30.40
2018-09-01T08:41:24.098Z,30.30
2018-09-01T08:43:52.474Z,29.70
2018-09-01T08:46:20.749Z,29.40
2018-09-01T08:48:48.584Z,28.00
2018-09-01T08:51:16.495Z,27.50
2018-09-01T08:53:44.395Z,28.20
2018-09-01T08:56:12.470Z,29.70
2018-09-01T08:58:41.105Z,30.20
2018-09-01T09:01:09.060Z,31.20
2018-09-01T09:03:36.935Z,29.20
2018-09-01T09:06:05.215Z,28.00
2018-09-01T09:08:33.167Z,28.80
2018-09-01T09:11:01.200Z,30.00
2018-09-01T09:13:29.359Z,31.40
2018-09-01T09:15:57.234Z,30.40
2018-09-01T09:18:25.062Z,31.00
2018-09-01T09:20:53.003Z,28.70
2018-09-01T09:23:20.786Z,30.70
2018-09-01T09:25:48.652Z,30.10
2018-09-01T09:28:17.331Z,29.30
2018-09-01T09:30:46.043Z,29.30
2018-09-01T09:33:14.258Z,31.20
2018-09-01T09:35:43.085Z,29.80
2018-09-01T09:38:11.068Z,28.00
2018-09-01T09:40:39.008Z,28.50
2018-09-01T09:43:06.759Z,28.10
2018-09-01T09:45:35.156Z,28.60
2018-09-01T09:48:03.013Z,28.00
2018-09-01T09:50:30.890Z,27.60
2018-09-01T09:52:58.857Z,25.20
2018-09-01T09:55:26.737Z,25.70
2018-09-01T09:57:54.692Z,24.80
2018-09-01T10:00:30.176Z,25.30
2018-09-01T10:02:58.023Z,25.10
2018-09-01T10:05:26.118Z,24.90
2018-09-01T10:07:54.973Z,24.70
2018-09-01T10:10:24.048Z,23.60
2018-09-01T10:12:53.873Z,23.70
2018-09-01T10:15:22.965Z,22.60
2018-09-01T10:17:51.816Z,22.80
2018-09-01T10:20:20.700Z,23.70
2018-09-01T10:22:49.207Z,23.70
2018-09-01T10:25:17.866Z,23.30
2018-09-01T10:27:46.817Z,23.30
2018-09-01T10:30:14.665Z,23.50
2018-09-01T10:32:42.946Z,22.90
2018-09-01T10:35:10.802Z,22.40
2018-09-01T10:37:38.597Z,23.20
2018-09-01T10:40:07.073Z,22.50
2018-09-01T10:42:35.076Z,22.60
2018-09-01T10:45:03.741Z,22.10
2018-09-01T10:47:54.574Z,22.30
2018-09-01T10:50:22.733Z,23.20
2018-09-01T10:52:50.714Z,23.40
2018-09-01T10:55:31.820Z,23.70
2018-09-01T10:58:04.045Z,23.70
2018-09-01T11:00:34.914Z,23.70
2018-09-01T11:03:05.174Z,23.30
2018-09-01T11:05:42.877Z,22.60
2018-09-01T11:08:12.485Z,22.90
2018-09-01T11:10:46.175Z,22.70
2018-09-01T11:13:21.951Z,22.20
2018-09-01T11:15:51.086Z,21.50
2018-09-01T11:18:19.880Z,21.40
2018-09-01T11:20:47.983Z,21.30
2018-09-01T11:23:15.895Z,21.00
2018-09-01T11:25:43.931Z,21.00
2018-09-01T11:28:12.262Z,21.30
2018-09-01T11:30:40.897Z,21.40
2018-09-01T11:33:09.486Z,21.50
2018-09-01T11:35:38.000Z,21.50
2018-09-01T11:38:07.252Z,21.70
2018-09-01T11:40:35.961Z,22.00
2018-09-01T11:43:04.690Z,22.00
2018-09-01T11:57:45.067Z,22.40
2018-09-01T12:00:14.107Z,22.10
2018-09-01T12:02:43.358Z,21.60
2018-09-01T12:05:11.973Z,21.60
2018-09-01T12:09:10.636Z,21.70
2018-09-01T12:11:38.442Z,21.80
2018-09-01T12:14:06.317Z,21.60
2018-09-01T12:16:34.117Z,21.90
2018-09-01T12:19:01.952Z,22.20
2018-09-01T12:21:29.711Z,22.30
2018-09-01T12:23:59.539Z,22.00
2018-09-01T12:26:27.347Z,22.40
2018-09-01T12:28:55.289Z,22.40
2018-09-01T12:31:24.085Z,22.00
2018-09-01T12:33:52.017Z,21.50
2018-09-01T12:36:19.861Z,21.30
2018-09-01T12:38:48.412Z,21.60
2018-09-01T12:41:16.310Z,22.00
2018-09-01T12:43:44.042Z,22.20
2018-09-01T12:46:11.835Z,22.30
2018-09-01T12:48:39.756Z,22.50
2018-09-01T12:51:07.958Z,22.60
2018-09-01T12:53:36.004Z,22.10
2018-09-01T12:56:04.013Z,21.50
2018-09-01T12:58:33.935Z,21.20
2018-09-01T13:01:01.759Z,21.10
2018-09-01T13:03:30.338Z,20.60
2018-09-01T13:05:58.906Z,20.90
2018-09-01T13:08:27.411Z,21.00
2018-09-01T13:10:55.972Z,21.40
2018-09-01T13:13:24.512Z,21.20
2018-09-01T13:15:53.047Z,21.40
2018-09-01T13:18:21.817Z,21.60
2018-09-01T13:20:50.399Z,21.40
2018-09-01T13:23:19.168Z,21.70
2018-09-01T13:25:47.795Z,21.40
2018-09-01T13:28:17.518Z,21.60
2018-09-01T13:30:46.156Z,21.40
2018-09-01T13:33:14.873Z,21.60
2018-09-01T13:35:43.486Z,21.80
2018-09-01T13:38:12.082Z,21.90
2018-09-01T13:40:43.656Z,21.70
2018-09-01T13:43:12.612Z,21.90
2018-09-01T13:45:41.196Z,22.10
2018-09-01T13:48:09.773Z,22.10
2018-09-01T13:50:38.304Z,22.10
2018-09-01T13:53:07.221Z,22.00
2018-09-01T13:55:35.979Z,22.00
2018-09-01T13:58:04.644Z,21.70
2018-09-01T14:00:33.860Z,21.70
2018-09-01T14:03:02.784Z,22.00
2018-09-01T14:05:31.832Z,21.70
2018-09-01T14:08:00.573Z,21.70
2018-09-01T14:10:29.342Z,22.10
2018-09-01T14:12:58.177Z,22.00
2018-09-01T14:15:26.873Z,22.30
2018-09-01T14:17:55.929Z,22.10
2018-09-01T14:20:24.701Z,21.80
2018-09-01T14:22:53.560Z,22.10
2018-09-01T14:25:22.406Z,22.20
2018-09-01T14:27:51.370Z,22.20
2018-09-01T14:30:20.136Z,22.30
2018-09-01T14:32:49.090Z,21.90
2018-09-01T14:35:17.757Z,21.90
2018-09-01T14:37:46.360Z,21.70
2018-09-01T14:40:15.227Z,21.40
2018-09-01T14:42:44.123Z,21.50
2018-09-01T14:45:12.760Z,21.50
2018-09-01T14:47:41.435Z,21.20
2018-09-01T14:50:10.673Z,21.30
2018-09-01T14:52:39.246Z,21.50
2018-09-01T14:55:07.922Z,21.30
2018-09-01T14:57:36.637Z,21.40
2018-09-01T15:00:06.192Z,21.30
2018-09-01T15:02:35.085Z,21.60
2018-09-01T15:05:04.217Z,21.80
2018-09-01T15:07:32.799Z,21.30
2018-09-01T15:10:01.453Z,21.30
2018-09-01T15:12:30.108Z,21.60
2018-09-01T15:14:58.819Z,21.70
2018-09-01T15:17:27.455Z,21.90
2018-09-01T15:19:56.241Z,21.80
2018-09-01T15:22:24.788Z,21.70
2018-09-01T15:24:53.360Z,21.60
2018-09-01T15:27:22.133Z,21.80
2018-09-01T15:29:50.691Z,21.50
2018-09-01T15:32:19.252Z,21.50
2018-09-01T15:34:47.720Z,21.30
2018-09-01T15:37:16.308Z,21.30
2018-09-01T15:39:44.879Z,21.30
2018-09-01T15:42:13.509Z,21.50
2018-09-01T15:44:42.631Z,21.60
2018-09-01T15:47:11.565Z,21.80
2018-09-01T15:49:40.164Z,22.00
2018-09-01T15:54:44.431Z,21.90
2018-09-01T15:57:13.647Z,21.90
2018-09-01T15:59:42.289Z,22.00
2018-09-01T16:02:11.376Z,21.70
2018-09-01T16:04:40.039Z,21.60
2018-09-01T16:07:08.809Z,20.90
2018-09-01T16:09:37.549Z,20.80
2018-09-01T16:12:06.439Z,20.80
2018-09-01T16:14:35.456Z,20.80
2018-09-01T16:17:04.030Z,20.70
2018-09-01T16:19:32.684Z,20.80
2018-09-01T16:22:01.482Z,20.90
2018-09-01T16:24:30.478Z,21.20
2018-09-01T16:26:59.431Z,21.10
2018-09-01T16:29:28.785Z,21.30
2018-09-01T16:31:57.562Z,21.40
2018-09-01T16:34:26.371Z,21.40
2018-09-01T16:36:55.292Z,21.30
2018-09-01T16:39:24.377Z,21.20
2018-09-01T16:41:54.569Z,20.70
2018-09-01T16:44:23.284Z,20.60
2018-09-01T16:46:52.455Z,20.40
2018-09-01T16:49:21.453Z,20.30
2018-09-01T16:51:50.346Z,20.30
2018-09-01T16:54:19.121Z,20.20
2018-09-01T16:56:48.204Z,20.10
2018-09-01T16:59:16.934Z,20.10
2018-09-01T17:01:45.688Z,20.10
2018-09-01T17:04:14.503Z,20.10
2018-09-01T17:06:43.406Z,20.00
2018-09-01T17:09:12.344Z,20.00
2018-09-01T17:11:42.004Z,20.00
2018-09-01T17:14:10.794Z,19.90
2018-09-01T17:16:39.599Z,19.80
2018-09-01T17:19:08.507Z,19.80
2018-09-01T17:21:37.182Z,19.70
2018-09-01T17:24:06.072Z,19.60
2018-09-01T17:26:35.310Z,19.60
2018-09-01T17:29:04.096Z,19.50
2018-09-01T17:31:32.892Z,19.50
2018-09-01T17:34:02.091Z,19.50
2018-09-01T17:36:30.942Z,19.40
2018-09-01T17:38:59.670Z,19.40
2018-09-01T17:41:28.361Z,19.30
2018-09-01T17:43:57.128Z,19.30
2018-09-01T17:46:25.904Z,19.20
2018-09-01T17:48:54.621Z,19.20
2018-09-01T17:51:23.374Z,19.10
2018-09-01T17:53:52.171Z,19.00
2018-09-01T17:56:21.421Z,18.90
2018-09-01T17:58:50.220Z,18.80
2018-09-01T18:01:20.378Z,18.70
2018-09-01T18:03:49.274Z,18.60
2018-09-01T18:06:17.921Z,18.60
2018-09-01T18:08:46.582Z,18.50
2018-09-01T18:11:15.274Z,18.40
2018-09-01T18:13:44.016Z,18.30
2018-09-01T18:16:12.648Z,18.30
2018-09-01T18:18:41.354Z,18.20
2018-09-01T18:21:10.011Z,18.20
2018-09-01T18:23:38.774Z,18.00
2018-09-01T18:26:08.409Z,18.00
2018-09-01T18:28:41.888Z,17.90
2018-09-01T18:31:10.800Z,17.80
2018-09-01T18:33:40.336Z,17.70
2018-09-01T18:36:13.817Z,17.60
2018-09-01T18:38:42.447Z,17.50
2018-09-01T18:41:11.212Z,17.40
2018-09-01T18:43:39.839Z,17.30
2018-09-01T18:46:08.771Z,17.10
2018-09-01T18:48:37.467Z,17.00
2018-09-01T18:51:06.103Z,16.90
2018-09-01T18:53:34.761Z,16.80
2018-09-01T18:56:03.445Z,16.70
2018-09-01T18:58:32.109Z,16.60
2018-09-01T19:01:00.765Z,16.50
2018-09-01T19:03:29.460Z,16.40
2018-09-01T19:05:58.163Z,16.40
2018-09-01T19:08:26.871Z,16.30
2018-09-01T19:10:55.546Z,16.20
2018-09-01T19:13:24.136Z,16.20
2018-09-01T19:15:52.797Z,16.20
2018-09-01T19:18:21.439Z,16.10
2018-09-01T19:20:50.128Z,16.10
2018-09-01T19:23:18.704Z,16.10
2018-09-01T19:25:47.364Z,16.00
2018-09-01T19:28:16.174Z,16.00
2018-09-01T19:30:44.830Z,15.90
2018-09-01T19:33:13.425Z,15.80
2018-09-01T19:35:44.961Z,15.70
2018-09-01T19:38:13.576Z,15.60
2018-09-01T19:40:42.332Z,15.50
2018-09-01T19:43:11.171Z,15.50
2018-09-01T19:45:39.939Z,15.50
2018-09-01T19:48:08.507Z,15.40
2018-09-01T19:50:37.202Z,15.40
2018-09-01T19:53:05.898Z,15.30
2018-09-01T19:55:34.685Z,15.10
2018-09-01T19:58:03.359Z,15.10
2018-09-01T20:00:32.056Z,15.10
2018-09-01T20:03:00.751Z,15.00
2018-09-01T20:12:29.134Z,14.90
2018-09-01T20:14:57.829Z,14.80
2018-09-01T20:17:26.606Z,14.70
2018-09-01T20:19:55.242Z,14.70
2018-09-01T20:22:23.896Z,14.70
2018-09-01T20:24:52.612Z,14.70
2018-09-01T20:27:21.307Z,14.60
2018-09-01T20:29:50.002Z,14.60
2018-09-01T20:32:18.659Z,14.70
2018-09-01T20:34:48.274Z,14.60
2018-09-01T20:37:18.368Z,14.60
2018-09-01T20:39:47.505Z,14.60
2018-09-01T20:42:17.101Z,14.50
2018-09-01T20:44:45.759Z,14.50
2018-09-01T20:47:14.454Z,14.40
2018-09-01T20:49:43.087Z,14.30
2018-09-01T20:52:11.764Z,14.20
2018-09-01T20:54:40.437Z,14.20
2018-09-01T20:57:09.073Z,14.10
2018-09-01T20:59:37.768Z,14.00
2018-09-01T21:02:06.543Z,14.00
2018-09-01T21:04:35.159Z,14.00
2018-09-01T21:07:03.854Z,14.00
2018-09-01T21:09:32.489Z,14.00
2018-09-01T21:12:01.192Z,13.90
2018-09-01T21:14:29.830Z,13.90
2018-09-01T21:16:58.456Z,13.80
2018-09-01T21:19:27.171Z,13.80
2018-09-01T21:21:55.870Z,13.80
2018-09-01T21:24:24.587Z,13.70
2018-09-01T21:26:53.317Z,13.70
2018-09-01T21:29:21.974Z,13.60
2018-09-01T21:31:50.690Z,13.70
2018-09-01T21:34:19.401Z,13.60
2018-09-01T21:36:48.080Z,13.60
2018-09-01T21:39:16.756Z,13.50
2018-09-01T21:41:45.422Z,13.50
2018-09-01T21:44:14.027Z,13.50
2018-09-01T21:46:42.662Z,13.40
2018-09-01T21:49:11.297Z,13.50
2018-09-01T21:51:39.951Z,13.60
2018-09-01T21:54:08.631Z,13.70
2018-09-01T21:56:37.323Z,13.70
2018-09-01T21:59:06.039Z,13.70
2018-09-01T22:01:35.894Z,13.70
2018-09-01T22:04:04.690Z,13.70
2018-09-01T22:06:33.405Z,13.60
2018-09-01T22:09:02.080Z,13.60
2018-09-01T22:11:37.095Z,13.60
2018-09-01T22:14:06.331Z,13.50
2018-09-01T22:16:35.047Z,13.40
2018-09-01T22:19:03.722Z,13.40
2018-09-01T22:21:32.417Z,13.50
2018-09-01T22:24:01.043Z,13.50
2018-09-01T22:26:29.728Z,13.30
2018-09-01T22:28:58.368Z,13.40
2018-09-01T22:31:27.078Z,13.30
2018-09-01T22:33:55.674Z,13.30
2018-09-01T22:36:24.388Z,13.30
2018-09-01T22:38:53.153Z,13.20
2018-09-01T22:41:21.800Z,13.20
2018-09-01T22:43:50.476Z,13.30
2018-09-01T22:46:19.230Z,13.30
2018-09-01T22:48:47.886Z,13.20
2018-09-01T22:51:16.702Z,13.20
2018-09-01T22:53:45.377Z,13.20
2018-09-01T22:56:14.013Z,13.20
2018-09-01T22:58:42.730Z,13.20
2018-09-01T23:01:11.404Z,13.20
2018-09-01T23:03:40.081Z,13.20
2018-09-01T23:06:08.715Z,13.20
2018-09-01T23:08:37.323Z,13.10
2018-09-01T23:11:06.845Z,13.20
2018-09-01T23:13:35.500Z,13.30
2018-09-01T23:16:04.007Z,13.30
2018-09-01T23:18:32.550Z,13.30
2018-09-01T23:21:01.134Z,13.40
2018-09-01T23:23:29.731Z,13.40
2018-09-01T23:25:58.417Z,13.30
2018-09-01T23:28:27.056Z,13.30
2018-09-01T23:30:55.728Z,13.40
2018-09-01T23:33:24.508Z,13.40
2018-09-01T23:35:53.159Z,13.40
2018-09-01T23:38:21.702Z,13.40
2018-09-01T23:40:50.361Z,13.40
2018-09-01T23:43:19.046Z,13.50
2018-09-01T23:45:47.690Z,13.50
2018-09-01T23:48:16.296Z,13.50
2018-09-01T23:50:45.033Z,13.50
2018-09-01T23:53:13.605Z,13.50
2018-09-01T23:55:42.343Z,13.40
2018-09-01T23:58:10.917Z,13.40
